Bettles Information

FAA: BTT - ICAO: PABT

Bettles (Airport) Location

State Alaska
County Yukon-Koyukuk
City Bettles
Bettles (Airport) is 0 miles north of Bettles, AK.
Latitude 66-54-50.2000N
Longitude 151-31-44.6000W
Elevation 647ft

Bettles METARs

METAR PABT 191053Z 00000KT 10SM FEW080 00/M03 A3022 RMK SLP245 T00001028
Altimeter 30.22"
Temperature 0.0°C (32.0°F)
Wind 0° at 0KT
Clouds few at 8,000ft
Visibility 10.0mi
Time observed: 2022-05-19T10:53:00Z

Bettles (Airport) Details

Status Operational
Activation January 1949
Ownership Public
Usage Public
Chart FAIRBANKS
ATC on-site No
Beacon schedule N/A
Beacon color clear green

Bettles (Airport) Contacts

Owner ALASKA DOT&PF NORTHERN REGION
Owner address 2301 PEGER RD, FAIRBANKS, AK 99709
Owner phone (907) 451-5280
Manager TIM COONS
Manager address STATE OF AK - DOT & PF, PO BOX 196960, ANCHORAGE, AK 99519-6960
Manager phone 907-266-2741

Bettles Radio Frequencies

Bettles (Airport) Radio Frequencies

UNICOM N/A
Common traffic advisory frequency (CTAF) 122.9